Time;durP1;ratioP1;P1;durP2;ratioP2;P2;SDS_P1;SDS_P2;PMS_P1;PMS_P2;Temp;Humidity;BMP_temperature;BMP_pressure;BME280_temperature;BME280_humidity;BME280_pressure;Samples;Min_cycle;Max_cycle;Signal;HPM_P1;HPM_P2
2022/07/20 00:00:29;;;;;;;10.07;5.10;;;;;;;;;;4936352;28;20134;-68
2022/07/20 00:02:54;;;;;;;8.27;5.28;;;;;;;;;;4934844;28;20809;-68
2022/07/20 00:05:20;;;;;;;8.68;4.88;;;;;;;;;;4943128;28;20038;-69
2022/07/20 00:07:45;;;;;;;12.27;5.28;;;;;;;;;;4935031;28;20038;-68
2022/07/20 00:12:54;;;;;;;19.52;8.20;;;;;;;;;;4935490;28;20178;-70
2022/07/20 00:15:22;;;;;;;14.65;6.70;;;;;;;;;;4938173;28;20056;-69
2022/07/20 00:17:50;;;;;;;11.98;6.13;;;;;;;;;;4935703;28;20824;-68
2022/07/20 00:20:17;;;;;;;12.48;5.25;;;;;;;;;;4937227;28;20241;-67
2022/07/20 00:22:42;;;;;;;14.30;6.03;;;;;;;;;;4950265;28;21292;-70
2022/07/20 00:25:08;;;;;;;13.00;5.40;;;;;;;;;;4934600;28;20138;-69
2022/07/20 00:27:34;;;;;;;9.30;5.45;;;;;;;;;;4944266;28;20113;-69
2022/07/20 00:30:00;;;;;;;13.48;5.55;;;;;;;;;;4934856;28;20109;-70
2022/07/20 00:32:25;;;;;;;11.45;5.32;;;;;;;;;;4934833;28;20081;-67
2022/07/20 00:34:53;;;;;;;18.67;6.20;;;;;;;;;;4934783;28;20035;-68
2022/07/20 00:37:20;;;;;;;17.98;4.82;;;;;;;;;;4935033;28;20062;-67
2022/07/20 00:39:46;;;;;;;26.90;5.70;;;;;;;;;;4935390;28;20078;-68
2022/07/20 00:42:11;;;;;;;20.10;7.45;;;;;;;;;;4934730;28;20046;-67
2022/07/20 00:44:36;;;;;;;13.35;6.28;;;;;;;;;;4934540;28;20038;-68
2022/07/20 00:47:02;;;;;;;16.15;5.38;;;;;;;;;;4937468;28;20054;-68
2022/07/20 00:49:27;;;;;;;11.05;3.90;;;;;;;;;;4965160;28;20045;-67
2022/07/20 00:51:52;;;;;;;8.77;4.30;;;;;;;;;;4935059;28;20122;-69
2022/07/20 00:54:18;;;;;;;11.38;4.60;;;;;;;;;;4933618;28;20042;-67
2022/07/20 00:56:43;;;;;;;10.65;5.30;;;;;;;;;;4935295;28;20039;-67
2022/07/20 00:59:11;;;;;;;13.98;6.15;;;;;;;;;;4934307;28;20124;-70
2022/07/20 01:01:39;;;;;;;14.45;6.97;;;;;;;;;;4934524;28;20701;-67
2022/07/20 01:04:06;;;;;;;15.68;7.18;;;;;;;;;;4933904;28;20030;-69
2022/07/20 01:06:34;;;;;;;14.93;7.32;;;;;;;;;;4948190;28;20066;-67
2022/07/20 01:08:59;;;;;;;14.80;6.65;;;;;;;;;;4934959;28;20050;-66
2022/07/20 01:11:27;;;;;;;14.93;6.07;;;;;;;;;;4933775;28;20720;-67
2022/07/20 01:14:01;;;;;;;12.60;5.97;;;;;;;;;;4948391;28;20045;-69
2022/07/20 01:16:26;;;;;;;14.13;7.22;;;;;;;;;;4936977;28;20056;-68
2022/07/20 01:18:54;;;;;;;13.20;6.40;;;;;;;;;;4933296;28;20133;-68
2022/07/20 01:21:21;;;;;;;11.90;5.82;;;;;;;;;;4934367;28;20038;-67
2022/07/20 01:23:49;;;;;;;15.65;5.60;;;;;;;;;;4939148;28;20042;-68
2022/07/20 01:26:19;;;;;;;18.08;7.30;;;;;;;;;;4935569;28;20228;-68
2022/07/20 01:28:45;;;;;;;14.27;6.97;;;;;;;;;;4933393;28;20050;-68
2022/07/20 01:31:10;;;;;;;14.32;6.38;;;;;;;;;;4934606;28;20042;-69
2022/07/20 01:33:38;;;;;;;15.30;6.40;;;;;;;;;;4933314;28;20027;-68
2022/07/20 01:36:05;;;;;;;15.02;5.70;;;;;;;;;;4932744;28;20062;-68
2022/07/20 01:38:31;;;;;;;12.70;5.45;;;;;;;;;;4932886;28;20179;-68
2022/07/20 01:40:56;;;;;;;15.07;5.40;;;;;;;;;;4933445;28;20049;-68
2022/07/20 01:43:22;;;;;;;15.25;5.90;;;;;;;;;;4938686;28;20101;-68
2022/07/20 01:45:47;;;;;;;16.10;6.35;;;;;;;;;;4933416;28;20081;-68
2022/07/20 01:48:15;;;;;;;11.63;4.97;;;;;;;;;;4933997;28;20048;-68
2022/07/20 01:50:44;;;;;;;10.85;5.22;;;;;;;;;;4932047;28;20058;-68
2022/07/20 01:53:10;;;;;;;9.60;4.40;;;;;;;;;;4933835;28;21150;-68
2022/07/20 01:55:35;;;;;;;14.95;5.00;;;;;;;;;;4937269;28;20042;-68
2022/07/20 01:58:02;;;;;;;12.07;5.10;;;;;;;;;;4948336;28;20180;-68
2022/07/20 02:00:28;;;;;;;13.07;5.18;;;;;;;;;;4933114;28;20031;-67
2022/07/20 02:02:53;;;;;;;14.38;5.57;;;;;;;;;;4933354;28;20081;-68
2022/07/20 02:05:19;;;;;;;15.10;5.43;;;;;;;;;;4933179;28;20035;-68
2022/07/20 02:07:46;;;;;;;15.25;5.82;;;;;;;;;;4933413;28;20039;-68
2022/07/20 02:10:15;;;;;;;23.63;7.78;;;;;;;;;;4932563;28;20105;-68
2022/07/20 02:12:40;;;;;;;30.38;10.48;;;;;;;;;;4937999;28;20039;-68
2022/07/20 02:15:07;;;;;;;24.98;8.15;;;;;;;;;;4933460;28;20120;-67
2022/07/20 02:17:35;;;;;;;11.35;5.13;;;;;;;;;;4932445;28;20109;-67
2022/07/20 02:20:00;;;;;;;13.85;5.13;;;;;;;;;;4932799;28;20036;-67
2022/07/20 02:22:27;;;;;;;26.20;9.35;;;;;;;;;;4935133;28;20766;-67
2022/07/20 02:24:52;;;;;;;28.40;11.10;;;;;;;;;;4932961;28;20043;-68
2022/07/20 02:27:18;;;;;;;28.65;11.95;;;;;;;;;;4915425;28;20030;-68
2022/07/20 02:29:45;;;;;;;28.25;12.63;;;;;;;;;;4933249;28;20038;-68
2022/07/20 02:32:11;;;;;;;35.00;14.55;;;;;;;;;;4935012;28;20876;-68
2022/07/20 02:34:38;;;;;;;29.88;16.58;;;;;;;;;;4932661;28;20069;-67
2022/07/20 02:37:05;;;;;;;35.08;17.95;;;;;;;;;;4932872;28;20046;-66
2022/07/20 02:39:36;;;;;;;38.35;18.83;;;;;;;;;;4932674;28;20935;-67
2022/07/20 02:42:03;;;;;;;38.88;20.17;;;;;;;;;;4946269;28;20035;-66
2022/07/20 02:44:29;;;;;;;33.60;19.77;;;;;;;;;;4933579;28;21161;-66
2022/07/20 02:46:54;;;;;;;35.00;20.10;;;;;;;;;;4932308;28;20093;-66
2022/07/20 02:49:20;;;;;;;36.25;20.30;;;;;;;;;;4933317;28;20035;-67
2022/07/20 02:51:45;;;;;;;32.65;20.17;;;;;;;;;;4932260;28;20054;-67
2022/07/20 02:54:10;;;;;;;33.00;20.98;;;;;;;;;;4932722;28;20030;-67
2022/07/20 02:56:36;;;;;;;36.38;22.02;;;;;;;;;;4947050;28;20042;-67
2022/07/20 02:59:03;;;;;;;35.30;22.38;;;;;;;;;;4933517;28;20039;-67
2022/07/20 03:01:29;;;;;;;41.17;22.80;;;;;;;;;;4932144;28;20041;-68
2022/07/20 03:03:54;;;;;;;39.63;21.88;;;;;;;;;;4933423;28;20031;-69
2022/07/20 03:06:21;;;;;;;40.15;22.67;;;;;;;;;;4935178;28;20053;-68
2022/07/20 03:08:47;;;;;;;37.15;23.52;;;;;;;;;;4933143;28;20042;-67
2022/07/20 03:11:12;;;;;;;34.97;22.02;;;;;;;;;;4930975;28;20129;-67
2022/07/20 03:13:37;;;;;;;36.70;22.77;;;;;;;;;;4937592;28;20807;-66
2022/07/20 03:16:03;;;;;;;42.00;24.13;;;;;;;;;;4931398;28;20161;-66
2022/07/20 03:18:28;;;;;;;36.30;22.88;;;;;;;;;;4933381;28;20141;-67
2022/07/20 03:20:55;;;;;;;43.35;24.58;;;;;;;;;;4931874;28;20814;-66
2022/07/20 03:23:23;;;;;;;40.65;24.95;;;;;;;;;;4933233;28;20139;-67
2022/07/20 03:25:49;;;;;;;46.75;23.90;;;;;;;;;;4931901;28;20043;-67
2022/07/20 03:28:14;;;;;;;38.15;24.17;;;;;;;;;;4932803;28;20748;-68
2022/07/20 03:30:39;;;;;;;36.85;23.95;;;;;;;;;;4931864;28;20126;-68
2022/07/20 03:33:04;;;;;;;42.80;24.38;;;;;;;;;;4932604;28;20117;-67
2022/07/20 03:35:30;;;;;;;45.35;24.20;;;;;;;;;;4931514;28;20035;-68
2022/07/20 03:37:55;;;;;;;40.60;24.70;;;;;;;;;;4931397;28;21143;-67
2022/07/20 03:40:21;;;;;;;40.78;25.13;;;;;;;;;;4932150;28;20050;-67
2022/07/20 03:42:49;;;;;;;37.75;25.05;;;;;;;;;;4935254;28;22330;-68
2022/07/20 03:45:14;;;;;;;44.47;25.35;;;;;;;;;;4935310;28;20034;-68
2022/07/20 03:47:39;;;;;;;40.85;25.85;;;;;;;;;;4935612;28;20118;-68
2022/07/20 03:50:05;;;;;;;41.10;26.35;;;;;;;;;;4934535;28;20130;-67
2022/07/20 03:52:30;;;;;;;43.72;25.15;;;;;;;;;;4935398;28;20035;-69
2022/07/20 03:54:56;;;;;;;43.65;25.90;;;;;;;;;;4935241;28;20209;-67
2022/07/20 03:57:26;;;;;;;43.85;26.60;;;;;;;;;;4935794;28;20145;-68
2022/07/20 03:59:52;;;;;;;47.00;26.35;;;;;;;;;;4935459;28;20035;-67
2022/07/20 04:02:17;;;;;;;42.78;26.45;;;;;;;;;;4935746;28;20085;-68
2022/07/20 04:04:42;;;;;;;47.55;26.88;;;;;;;;;;4934352;28;20641;-68
2022/07/20 04:07:07;;;;;;;46.50;26.20;;;;;;;;;;4935827;28;20035;-67
2022/07/20 04:09:45;;;;;;;47.13;27.45;;;;;;;;;;4943396;28;20066;-68
2022/07/20 04:12:11;;;;;;;44.92;27.42;;;;;;;;;;4937393;28;20794;-68
2022/07/20 04:14:37;;;;;;;45.53;27.05;;;;;;;;;;4935833;28;20117;-67
2022/07/20 04:17:03;;;;;;;46.17;27.85;;;;;;;;;;4943092;28;20031;-68
2022/07/20 04:19:28;;;;;;;46.03;27.98;;;;;;;;;;4932732;28;20146;-68
2022/07/20 04:21:58;;;;;;;44.85;28.20;;;;;;;;;;4932313;28;20035;-67
2022/07/20 04:24:26;;;;;;;51.35;29.38;;;;;;;;;;4936298;28;20043;-69
2022/07/20 04:26:51;;;;;;;49.70;29.45;;;;;;;;;;4932528;28;20034;-67
2022/07/20 04:29:17;;;;;;;49.85;28.65;;;;;;;;;;4932654;28;20105;-67
2022/07/20 04:31:44;;;;;;;50.08;30.45;;;;;;;;;;4932733;28;20042;-68
2022/07/20 04:34:11;;;;;;;50.42;30.60;;;;;;;;;;4931040;28;20030;-67
2022/07/20 04:36:37;;;;;;;51.20;30.85;;;;;;;;;;4947046;28;20098;-68
2022/07/20 04:39:02;;;;;;;55.17;31.83;;;;;;;;;;4946753;28;20039;-69
2022/07/20 04:41:32;;;;;;;58.08;32.05;;;;;;;;;;4932860;28;20042;-68
2022/07/20 04:44:00;;;;;;;50.95;33.08;;;;;;;;;;4931617;28;20046;-70
2022/07/20 04:46:28;;;;;;;53.20;32.90;;;;;;;;;;4933404;28;20062;-72
2022/07/20 04:48:53;;;;;;;53.58;32.40;;;;;;;;;;4933285;28;21672;-72
2022/07/20 04:51:19;;;;;;;52.65;32.03;;;;;;;;;;4932822;28;20042;-70
2022/07/20 04:53:44;;;;;;;51.90;31.95;;;;;;;;;;4944963;28;20173;-67
2022/07/20 04:56:12;;;;;;;46.67;31.90;;;;;;;;;;4946268;28;20043;-71
2022/07/20 04:58:37;;;;;;;51.22;33.35;;;;;;;;;;4932012;28;20043;-71
2022/07/20 05:01:03;;;;;;;49.35;31.45;;;;;;;;;;4945940;28;20134;-71
2022/07/20 05:03:30;;;;;;;50.25;32.00;;;;;;;;;;4932341;28;20126;-71
2022/07/20 05:05:56;;;;;;;57.85;31.30;;;;;;;;;;4929764;28;20050;-71
2022/07/20 05:08:21;;;;;;;46.60;30.55;;;;;;;;;;4936525;28;20042;-71
2022/07/20 05:10:46;;;;;;;46.55;31.13;;;;;;;;;;4931934;28;20054;-71
2022/07/20 05:13:12;;;;;;;48.38;29.67;;;;;;;;;;4931886;28;20112;-71
2022/07/20 05:15:37;;;;;;;47.08;29.50;;;;;;;;;;4935829;28;20030;-72
2022/07/20 05:18:02;;;;;;;50.95;29.52;;;;;;;;;;4931894;28;20049;-74
2022/07/20 05:20:28;;;;;;;42.58;29.58;;;;;;;;;;4931683;28;20128;-72
2022/07/20 05:22:55;;;;;;;44.08;29.25;;;;;;;;;;4936620;28;20147;-70
2022/07/20 05:25:20;;;;;;;41.30;27.80;;;;;;;;;;4933709;28;20161;-71
2022/07/20 05:27:46;;;;;;;41.53;27.40;;;;;;;;;;4946433;28;20035;-70
2022/07/20 05:30:11;;;;;;;38.65;26.75;;;;;;;;;;4933862;28;20042;-71
2022/07/20 05:32:37;;;;;;;40.83;26.58;;;;;;;;;;4933830;28;20043;-69
2022/07/20 05:35:03;;;;;;;37.13;25.13;;;;;;;;;;4933910;28;20042;-69
2022/07/20 05:37:29;;;;;;;40.45;26.38;;;;;;;;;;4948226;28;20118;-70
2022/07/20 05:39:54;;;;;;;42.70;25.38;;;;;;;;;;4934576;28;20117;-71
2022/07/20 05:42:20;;;;;;;42.95;26.65;;;;;;;;;;4933129;28;20103;-71
2022/07/20 05:44:45;;;;;;;41.08;26.02;;;;;;;;;;4947655;28;20034;-70
2022/07/20 05:47:10;;;;;;;43.58;24.48;;;;;;;;;;4933249;28;20077;-70
2022/07/20 05:49:36;;;;;;;36.55;23.10;;;;;;;;;;4932421;28;20066;-69
2022/07/20 05:52:02;;;;;;;38.47;23.55;;;;;;;;;;4947341;28;20065;-70
2022/07/20 05:54:28;;;;;;;32.97;21.63;;;;;;;;;;4934133;28;20038;-70
2022/07/20 05:56:53;;;;;;;34.80;21.27;;;;;;;;;;4938509;28;20065;-70
2022/07/20 05:59:18;;;;;;;33.03;20.00;;;;;;;;;;4933727;28;20041;-68
2022/07/20 06:01:44;;;;;;;31.27;19.58;;;;;;;;;;4932523;28;20046;-68
2022/07/20 06:04:15;;;;;;;32.42;18.67;;;;;;;;;;4936236;28;20042;-66
2022/07/20 06:06:41;;;;;;;;;;;;;;;;;;4927051;28;20222;-66
2022/07/20 06:09:07;;;;;;;31.70;18.05;;;;;;;;;;4929919;28;20177;-65
2022/07/20 06:11:33;;;;;;;33.13;18.58;;;;;;;;;;4934354;28;20586;-66
2022/07/20 06:14:00;;;;;;;34.95;17.92;;;;;;;;;;4928559;28;20070;-66
2022/07/20 06:16:26;;;;;;;30.55;17.35;;;;;;;;;;4929139;28;20096;-66
2022/07/20 06:18:51;;;;;;;35.20;18.58;;;;;;;;;;4928569;28;20074;-66
2022/07/20 06:21:17;;;;;;;28.95;17.35;;;;;;;;;;4927378;28;20233;-66
2022/07/20 06:23:43;;;;;;;33.33;19.02;;;;;;;;;;4929263;28;20058;-65
2022/07/20 06:26:08;;;;;;;29.95;18.67;;;;;;;;;;4929042;28;20133;-70
2022/07/20 06:28:33;;;;;;;30.20;17.75;;;;;;;;;;4934168;28;21130;-64
2022/07/20 06:30:58;;;;;;;31.60;18.02;;;;;;;;;;4931785;28;20053;-70
2022/07/20 06:33:24;;;;;;;33.00;17.92;;;;;;;;;;4932888;28;20151;-68
2022/07/20 06:35:49;;;;;;;36.20;18.60;;;;;;;;;;4930813;28;21046;-69
2022/07/20 06:38:17;;;;;;;29.42;17.60;;;;;;;;;;4932683;28;20485;-68
2022/07/20 06:40:45;;;;;;;31.10;17.98;;;;;;;;;;4928637;28;20053;-68
2022/07/20 06:43:11;;;;;;;32.70;17.38;;;;;;;;;;4927931;28;20558;-69
2022/07/20 06:45:36;;;;;;;36.33;17.73;;;;;;;;;;4929635;28;20073;-74
2022/07/20 06:48:02;;;;;;;25.33;15.98;;;;;;;;;;4942593;28;20319;-75
2022/07/20 06:50:27;;;;;;;28.67;16.20;;;;;;;;;;4935067;28;20035;-77
2022/07/20 06:52:53;;;;;;;32.00;15.82;;;;;;;;;;4930115;28;20039;-77
2022/07/20 06:55:18;;;;;;;28.80;15.90;;;;;;;;;;4937624;28;20340;-77
2022/07/20 06:57:46;;;;;;;31.25;16.30;;;;;;;;;;4931183;28;20594;-70
2022/07/20 07:00:12;;;;;;;31.38;16.35;;;;;;;;;;4937220;28;20774;-76
2022/07/20 07:02:37;;;;;;;32.65;16.00;;;;;;;;;;4932167;28;20034;-72
2022/07/20 07:05:03;;;;;;;32.53;15.15;;;;;;;;;;4948704;28;20093;-70
2022/07/20 07:07:28;;;;;;;31.65;15.40;;;;;;;;;;4939396;28;20314;-73
2022/07/20 07:09:53;;;;;;;30.33;15.38;;;;;;;;;;4953053;28;20058;-73
2022/07/20 07:12:18;;;;;;;29.98;14.23;;;;;;;;;;4952998;28;20510;-72
2022/07/20 07:14:46;;;;;;;33.03;13.00;;;;;;;;;;4944042;28;20582;-71
2022/07/20 07:17:12;;;;;;;30.25;12.52;;;;;;;;;;4956055;28;20043;-74
2022/07/20 07:19:38;;;;;;;36.83;13.27;;;;;;;;;;4949069;28;20043;-71
2022/07/20 07:22:03;;;;;;;31.58;12.20;;;;;;;;;;4949551;28;20079;-70
2022/07/20 07:24:31;;;;;;;32.72;12.95;;;;;;;;;;4957717;28;20069;-74
2022/07/20 07:26:57;;;;;;;32.40;12.73;;;;;;;;;;4960503;28;20122;-71
2022/07/20 07:29:22;;;;;;;33.08;12.55;;;;;;;;;;4960314;28;20038;-73
2022/07/20 07:31:47;;;;;;;32.28;11.93;;;;;;;;;;4968249;28;20097;-73
2022/07/20 07:34:12;;;;;;;27.27;11.63;;;;;;;;;;4954732;28;20098;-72
2022/07/20 07:36:40;;;;;;;32.85;11.88;;;;;;;;;;4959767;28;20038;-72
2022/07/20 07:39:08;;;;;;;23.00;11.60;;;;;;;;;;4960789;28;20038;-73
2022/07/20 07:41:33;;;;;;;30.27;11.63;;;;;;;;;;4959200;28;21109;-72
2022/07/20 07:43:58;;;;;;;23.25;10.93;;;;;;;;;;4969088;28;20031;-73
2022/07/20 07:46:24;;;;;;;26.25;11.60;;;;;;;;;;4969976;28;20077;-74
2022/07/20 07:48:52;;;;;;;27.83;11.35;;;;;;;;;;4977906;28;20046;-71
2022/07/20 07:51:17;;;;;;;26.48;12.18;;;;;;;;;;4958305;28;20533;-74
2022/07/20 07:53:42;;;;;;;26.25;12.23;;;;;;;;;;4964499;28;20034;-72
2022/07/20 07:56:10;;;;;;;28.65;12.00;;;;;;;;;;4956904;28;20066;-72
2022/07/20 07:58:35;;;;;;;29.67;10.95;;;;;;;;;;4944464;28;20039;-71
2022/07/20 08:01:01;;;;;;;25.52;10.30;;;;;;;;;;4949485;28;21115;-72
2022/07/20 08:03:27;;;;;;;32.80;11.05;;;;;;;;;;4954391;28;20419;-75
2022/07/20 08:05:54;;;;;;;27.15;10.73;;;;;;;;;;4945857;28;20340;-73
2022/07/20 08:08:22;;;;;;;29.45;10.73;;;;;;;;;;4952988;28;20042;-71
2022/07/20 08:10:47;;;;;;;27.85;10.52;;;;;;;;;;4949603;28;20176;-70
2022/07/20 08:13:13;;;;;;;20.23;10.35;;;;;;;;;;4946325;28;20074;-68
2022/07/20 08:15:38;;;;;;;27.40;10.00;;;;;;;;;;4955225;28;20172;-70
2022/07/20 08:18:04;;;;;;;21.20;10.18;;;;;;;;;;4945611;28;20042;-70
2022/07/20 08:20:29;;;;;;;24.52;10.00;;;;;;;;;;4942562;28;20129;-69
2022/07/20 08:22:55;;;;;;;21.67;9.48;;;;;;;;;;4940031;28;21008;-69
2022/07/20 08:25:21;;;;;;;26.70;10.10;;;;;;;;;;4945964;28;20035;-68
2022/07/20 08:27:46;;;;;;;25.92;9.32;;;;;;;;;;4953425;28;20039;-68
2022/07/20 08:30:12;;;;;;;25.23;9.68;;;;;;;;;;4945804;28;22682;-69
2022/07/20 08:32:37;;;;;;;27.98;9.77;;;;;;;;;;4950145;28;20046;-70
2022/07/20 08:35:02;;;;;;;22.92;9.40;;;;;;;;;;4955145;28;20046;-68
2022/07/20 08:37:29;;;;;;;24.83;9.80;;;;;;;;;;4954457;28;21007;-69
2022/07/20 08:39:54;;;;;;;23.40;9.18;;;;;;;;;;4960637;28;20035;-68
2022/07/20 08:42:20;;;;;;;24.73;9.45;;;;;;;;;;4944082;28;20488;-69
2022/07/20 08:44:45;;;;;;;21.98;9.10;;;;;;;;;;4941640;28;20112;-72
2022/07/20 08:47:14;;;;;;;24.73;8.98;;;;;;;;;;4941254;28;20031;-71
2022/07/20 08:49:44;;;;;;;26.30;9.15;;;;;;;;;;4943863;28;20081;-70
2022/07/20 08:52:12;;;;;;;25.80;9.20;;;;;;;;;;4937938;28;20051;-69
2022/07/20 08:54:37;;;;;;;26.38;9.68;;;;;;;;;;4938932;28;20870;-72
2022/07/20 08:57:13;;;;;;;21.75;9.50;;;;;;;;;;4930542;28;20043;-71
2022/07/20 08:59:38;;;;;;;23.20;10.45;;;;;;;;;;4946228;28;20046;-73
2022/07/20 09:02:05;;;;;;;21.48;9.23;;;;;;;;;;4936021;28;20046;-72
2022/07/20 09:04:31;;;;;;;20.90;9.93;;;;;;;;;;4932855;28;20054;-71
2022/07/20 09:06:56;;;;;;;20.33;9.77;;;;;;;;;;4936718;28;20109;-73
2022/07/20 09:09:22;;;;;;;29.67;10.02;;;;;;;;;;4935281;28;20038;-71
2022/07/20 09:11:50;;;;;;;25.55;8.60;;;;;;;;;;4941825;28;20042;-72
2022/07/20 09:14:36;;;;;;;25.38;8.65;;;;;;;;;;4942335;28;20035;-70
2022/07/20 09:17:13;;;;;;;25.77;8.88;;;;;;;;;;4940876;28;20038;-69
2022/07/20 09:19:58;;;;;;;23.85;8.40;;;;;;;;;;4937862;28;20030;-68
2022/07/20 09:22:38;;;;;;;32.40;8.63;;;;;;;;;;4937157;28;20757;-70
2022/07/20 09:25:06;;;;;;;22.48;7.55;;;;;;;;;;4936853;28;20687;-69
2022/07/20 09:27:35;;;;;;;19.88;6.75;;;;;;;;;;4937395;28;20034;-69
2022/07/20 09:30:03;;;;;;;20.45;6.85;;;;;;;;;;4946194;28;20041;-73
2022/07/20 09:32:28;;;;;;;22.05;7.10;;;;;;;;;;4947404;28;20034;-72
2022/07/20 09:35:02;;;;;;;22.58;6.90;;;;;;;;;;4955944;28;20038;-71
2022/07/20 09:37:37;;;;;;;19.50;5.90;;;;;;;;;;4944412;28;20035;-70
2022/07/20 09:40:03;;;;;;;17.00;5.78;;;;;;;;;;4967769;28;20038;-72
2022/07/20 09:42:36;;;;;;;15.73;4.85;;;;;;;;;;4976849;28;20648;-73
2022/07/20 09:45:17;;;;;;;14.48;5.10;;;;;;;;;;4955237;28;20026;-72
2022/07/20 09:48:00;;;;;;;14.20;5.28;;;;;;;;;;4951217;28;20035;-71
2022/07/20 09:50:33;;;;;;;14.85;4.63;;;;;;;;;;4945835;28;20110;-71
2022/07/20 09:52:58;;;;;;;15.75;4.68;;;;;;;;;;4953349;28;20042;-71
2022/07/20 09:55:24;;;;;;;16.48;4.97;;;;;;;;;;4967667;28;20037;-71
2022/07/20 09:57:50;;;;;;;14.32;4.18;;;;;;;;;;4938949;28;20042;-69
2022/07/20 10:00:16;;;;;;;17.65;4.43;;;;;;;;;;4938648;28;20049;-71
2022/07/20 10:02:43;;;;;;;16.90;4.57;;;;;;;;;;4937711;28;20097;-70
2022/07/20 10:05:09;;;;;;;18.27;5.10;;;;;;;;;;4937316;28;21139;-71
2022/07/20 10:07:37;;;;;;;16.20;5.50;;;;;;;;;;4933671;28;20027;-71
2022/07/20 10:10:02;;;;;;;19.08;5.30;;;;;;;;;;4933321;28;20034;-70
2022/07/20 10:12:28;;;;;;;15.40;5.03;;;;;;;;;;4935562;28;20054;-71
2022/07/20 10:14:57;;;;;;;15.98;5.10;;;;;;;;;;4936163;28;20034;-68
2022/07/20 10:17:22;;;;;;;20.27;5.80;;;;;;;;;;4933682;28;20288;-68
2022/07/20 10:19:48;;;;;;;19.13;5.35;;;;;;;;;;4933012;28;20051;-70
2022/07/20 10:22:14;;;;;;;17.45;5.45;;;;;;;;;;4932771;28;20043;-69
2022/07/20 10:24:42;;;;;;;15.15;4.90;;;;;;;;;;4932203;28;20050;-68
2022/07/20 10:27:08;;;;;;;20.65;6.10;;;;;;;;;;4932657;28;20053;-69
2022/07/20 10:29:40;;;;;;;24.10;6.13;;;;;;;;;;4938790;28;20038;-70
2022/07/20 10:32:20;;;;;;;17.00;5.50;;;;;;;;;;4936136;28;20049;-70
2022/07/20 10:34:49;;;;;;;21.50;6.37;;;;;;;;;;4933556;28;20039;-70
2022/07/20 10:37:26;;;;;;;24.95;6.05;;;;;;;;;;4933780;28;20144;-69
2022/07/20 10:39:52;;;;;;;23.73;6.30;;;;;;;;;;4946754;28;20034;-69
2022/07/20 10:42:22;;;;;;;18.88;5.88;;;;;;;;;;4933230;28;20122;-69
2022/07/20 10:44:51;;;;;;;24.52;6.30;;;;;;;;;;4930747;28;20801;-74
2022/07/20 10:47:35;;;;;;;21.83;6.18;;;;;;;;;;4935292;28;20046;-71
2022/07/20 10:50:03;;;;;;;23.38;6.15;;;;;;;;;;4933162;28;20058;-69
2022/07/20 10:52:33;;;;;;;16.75;5.70;;;;;;;;;;4940243;28;20945;-69
2022/07/20 10:54:59;;;;;;;18.52;5.60;;;;;;;;;;4940074;28;20031;-69
2022/07/20 10:57:28;;;;;;;15.73;5.00;;;;;;;;;;4939494;28;20168;-69
2022/07/20 11:00:03;;;;;;;22.50;5.85;;;;;;;;;;4940688;28;20031;-70
2022/07/20 11:02:31;;;;;;;20.42;5.68;;;;;;;;;;4938161;28;20031;-69
2022/07/20 11:04:56;;;;;;;16.70;5.40;;;;;;;;;;4939713;28;20153;-68
2022/07/20 11:07:29;;;;;;;15.77;5.40;;;;;;;;;;4952228;28;20120;-70
2022/07/20 11:09:54;;;;;;;17.88;5.85;;;;;;;;;;4953359;28;20038;-71
2022/07/20 11:12:27;;;;;;;20.35;5.68;;;;;;;;;;4954216;28;20042;-69
2022/07/20 11:14:53;;;;;;;18.23;5.55;;;;;;;;;;4940389;28;20054;-69
2022/07/20 11:17:18;;;;;;;15.50;5.57;;;;;;;;;;4939380;28;20031;-69
2022/07/20 11:19:43;;;;;;;17.48;5.63;;;;;;;;;;4942118;28;20046;-69
2022/07/20 11:22:09;;;;;;;17.52;5.50;;;;;;;;;;4938226;28;20033;-68
2022/07/20 11:24:34;;;;;;;16.02;5.55;;;;;;;;;;4936996;28;20047;-70
2022/07/20 11:27:12;;;;;;;20.38;5.63;;;;;;;;;;4937653;28;20632;-68
2022/07/20 11:29:44;;;;;;;20.10;5.88;;;;;;;;;;4935929;28;20883;-68
2022/07/20 11:32:10;;;;;;;19.20;6.07;;;;;;;;;;4936296;28;20121;-68
2022/07/20 11:34:43;;;;;;;20.42;6.07;;;;;;;;;;4937195;28;20039;-68
2022/07/20 11:37:08;;;;;;;21.48;6.03;;;;;;;;;;4938586;28;20199;-71
2022/07/20 11:39:33;;;;;;;20.65;6.63;;;;;;;;;;4936901;28;20039;-70
2022/07/20 11:41:58;;;;;;;15.15;5.82;;;;;;;;;;4941432;28;20110;-70
2022/07/20 11:44:27;;;;;;;15.95;6.20;;;;;;;;;;4938394;28;20124;-67
2022/07/20 11:46:53;;;;;;;16.35;6.00;;;;;;;;;;4936679;28;20031;-69
2022/07/20 11:49:19;;;;;;;14.93;5.65;;;;;;;;;;4923116;28;20046;-68
2022/07/20 11:51:55;;;;;;;17.92;5.90;;;;;;;;;;4935762;28;20050;-67
2022/07/20 11:54:21;;;;;;;18.45;6.30;;;;;;;;;;4936077;28;20179;-68
2022/07/20 11:56:48;;;;;;;24.33;12.15;;;;;;;;;;4934717;28;20035;-66
2022/07/20 11:59:13;;;;;;;19.67;8.13;;;;;;;;;;4937394;28;20049;-68
2022/07/20 12:01:38;;;;;;;21.80;9.18;;;;;;;;;;4934971;28;20042;-68
2022/07/20 12:04:05;;;;;;;15.27;7.20;;;;;;;;;;4933172;28;20150;-68
2022/07/20 12:06:33;;;;;;;15.48;6.97;;;;;;;;;;4936071;28;20736;-68
2022/07/20 12:09:15;;;;;;;14.20;6.70;;;;;;;;;;4935133;28;20041;-68
2022/07/20 12:12:00;;;;;;;13.65;7.05;;;;;;;;;;4948943;28;20047;-69
2022/07/20 12:14:30;;;;;;;16.58;8.25;;;;;;;;;;4934237;28;20038;-69
2022/07/20 12:16:56;;;;;;;14.38;7.40;;;;;;;;;;4935911;28;20043;-69
2022/07/20 12:19:22;;;;;;;15.80;7.78;;;;;;;;;;4933013;28;20914;-68
2022/07/20 12:21:50;;;;;;;14.48;7.97;;;;;;;;;;4932573;28;20041;-68
2022/07/20 12:24:16;;;;;;;16.63;7.13;;;;;;;;;;4934190;28;20034;-70
2022/07/20 12:26:43;;;;;;;16.25;7.15;;;;;;;;;;4938249;28;20827;-69
2022/07/20 12:29:38;;;;;;;19.05;9.40;;;;;;;;;;4932561;28;20164;-69
2022/07/20 12:32:04;;;;;;;18.90;7.78;;;;;;;;;;4936245;28;20055;-69
2022/07/20 12:34:31;;;;;;;16.67;7.00;;;;;;;;;;4933118;28;20857;-68
2022/07/20 12:36:57;;;;;;;24.85;10.93;;;;;;;;;;4932269;28;20110;-68
2022/07/20 12:39:38;;;;;;;23.23;10.60;;;;;;;;;;4933393;28;20109;-69
2022/07/20 12:42:19;;;;;;;24.50;8.37;;;;;;;;;;4933247;28;20750;-69
2022/07/20 12:44:46;;;;;;;21.77;10.90;;;;;;;;;;4935755;28;20145;-66
2022/07/20 12:47:12;;;;;;;32.15;11.90;;;;;;;;;;4945718;28;20112;-68
2022/07/20 12:49:38;;;;;;;17.77;9.30;;;;;;;;;;4931532;28;20070;-70
2022/07/20 12:52:03;;;;;;;20.98;9.38;;;;;;;;;;4932839;28;20049;-68
2022/07/20 12:54:31;;;;;;;24.13;12.50;;;;;;;;;;4947178;28;20165;-66
2022/07/20 12:56:56;;;;;;;19.08;11.25;;;;;;;;;;4945931;28;20729;-67
2022/07/20 12:59:22;;;;;;;20.90;11.13;;;;;;;;;;4935610;28;20851;-66
2022/07/20 13:01:50;;;;;;;25.13;13.88;;;;;;;;;;4932501;28;20280;-66
2022/07/20 13:04:17;;;;;;;20.48;10.02;;;;;;;;;;4933307;28;20117;-67
2022/07/20 13:06:44;;;;;;;25.17;11.27;;;;;;;;;;4933923;28;20092;-68
2022/07/20 13:09:13;;;;;;;18.63;11.38;;;;;;;;;;4934129;28;20070;-68
2022/07/20 13:11:42;;;;;;;23.27;11.15;;;;;;;;;;4938035;28;20046;-68
2022/07/20 13:14:09;;;;;;;22.45;12.10;;;;;;;;;;4933911;28;20042;-68
2022/07/20 13:16:34;;;;;;;24.10;10.95;;;;;;;;;;4933867;28;20857;-68
2022/07/20 13:19:00;;;;;;;16.58;8.43;;;;;;;;;;4934747;28;20161;-69
2022/07/20 13:21:28;;;;;;;22.88;12.85;;;;;;;;;;4929798;28;20254;-68
2022/07/20 13:23:56;;;;;;;20.92;11.52;;;;;;;;;;4943918;28;20039;-67
2022/07/20 13:26:28;;;;;;;19.20;10.10;;;;;;;;;;4930790;28;20046;-67
2022/07/20 13:28:54;;;;;;;25.25;14.63;;;;;;;;;;4931062;28;21926;-67
2022/07/20 13:31:19;;;;;;;19.80;11.45;;;;;;;;;;4930565;28;20038;-66
2022/07/20 13:33:45;;;;;;;13.82;4.78;;;;;;;;;;4930877;28;20650;-67
2022/07/20 13:36:10;;;;;;;12.80;4.30;;;;;;;;;;4930651;28;20396;-67
2022/07/20 13:38:38;;;;;;;13.18;4.40;;;;;;;;;;4929920;28;20066;-67
2022/07/20 13:41:06;;;;;;;12.50;4.05;;;;;;;;;;4930164;28;20470;-67
2022/07/20 13:43:31;;;;;;;11.48;4.43;;;;;;;;;;4929711;28;20113;-67
2022/07/20 13:45:59;;;;;;;15.85;4.85;;;;;;;;;;4930263;28;20385;-67
2022/07/20 13:48:25;;;;;;;13.18;4.57;;;;;;;;;;4935238;28;20473;-67
2022/07/20 13:50:51;;;;;;;16.67;4.63;;;;;;;;;;4930084;28;20129;-68
2022/07/20 13:53:16;;;;;;;14.65;4.30;;;;;;;;;;4930916;28;20042;-67
2022/07/20 13:55:44;;;;;;;13.98;4.30;;;;;;;;;;4927659;28;20046;-66
2022/07/20 13:58:10;;;;;;;14.40;4.40;;;;;;;;;;4929388;28;20259;-67
2022/07/20 14:00:35;;;;;;;15.65;4.50;;;;;;;;;;4930265;28;20129;-68
2022/07/20 14:03:01;;;;;;;13.82;4.38;;;;;;;;;;4929568;28;20175;-67
2022/07/20 14:05:26;;;;;;;12.85;5.03;;;;;;;;;;4930210;28;20110;-68
2022/07/20 14:07:52;;;;;;;14.95;4.45;;;;;;;;;;4930393;28;20219;-67
2022/07/20 14:10:17;;;;;;;10.88;4.43;;;;;;;;;;4944425;28;20034;-68
2022/07/20 14:12:42;;;;;;;10.27;4.10;;;;;;;;;;4930279;28;20074;-68
2022/07/20 14:15:08;;;;;;;13.73;4.18;;;;;;;;;;4937292;28;20042;-67
2022/07/20 14:17:35;;;;;;;14.15;4.32;;;;;;;;;;4932773;28;20073;-69
2022/07/20 14:20:01;;;;;;;15.35;4.60;;;;;;;;;;4929875;28;20047;-68
2022/07/20 14:22:26;;;;;;;12.63;4.35;;;;;;;;;;4928924;28;20157;-68
2022/07/20 14:24:52;;;;;;;11.55;4.03;;;;;;;;;;4944019;28;20034;-69